createdAt,value
2022-10-08T00:00:07.018Z,15.23
2022-10-08T00:02:43.564Z,16.17
2022-10-08T00:05:17.308Z,13.65
2022-10-08T00:07:49.189Z,11.73
2022-10-08T00:10:22.041Z,18.92
2022-10-08T00:12:53.945Z,11.73
2022-10-08T00:15:27.203Z,13.82
2022-10-08T00:17:59.793Z,10.15
2022-10-08T00:20:32.559Z,14.98
2022-10-08T00:23:04.447Z,19.92
2022-10-08T00:25:45.098Z,16.23
2022-10-08T00:28:17.296Z,17.05
2022-10-08T00:30:50.068Z,14.43
2022-10-08T00:33:24.189Z,19.80
2022-10-08T00:36:01.422Z,19.33
2022-10-08T00:38:34.919Z,17.93
2022-10-08T00:41:17.943Z,10.15
2022-10-08T00:43:54.014Z,10.57
2022-10-08T00:46:34.058Z,14.63
2022-10-08T00:49:20.963Z,17.77
2022-10-08T00:51:56.220Z,14.53
2022-10-08T00:54:29.552Z,21.80
2022-10-08T00:57:02.350Z,27.58
2022-10-08T00:59:36.475Z,19.45
2022-10-08T01:02:09.583Z,15.45
2022-10-08T01:04:43.474Z,17.13
2022-10-08T01:07:55.553Z,13.60
2022-10-08T01:10:47.042Z,15.32
2022-10-08T01:13:39.969Z,25.15
2022-10-08T01:16:22.958Z,14.40
2022-10-08T01:18:54.781Z,17.80
2022-10-08T01:21:58.264Z,15.93
2022-10-08T01:25:12.357Z,16.67
2022-10-08T01:27:51.231Z,18.23
2022-10-08T01:30:24.023Z,14.73
2022-10-08T01:33:05.200Z,16.03
2022-10-08T01:35:37.777Z,15.00
2022-10-08T01:38:16.553Z,14.55
2022-10-08T01:40:52.844Z,16.02
2022-10-08T01:43:39.148Z,15.48
2022-10-08T01:46:25.427Z,16.87
2022-10-08T01:49:07.618Z,17.05
2022-10-08T01:51:49.825Z,13.00
2022-10-08T01:54:25.434Z,15.07
2022-10-08T01:57:00.675Z,13.90
2022-10-08T01:59:42.527Z,13.50
2022-10-08T02:02:23.949Z,16.35
2022-10-08T02:04:57.368Z,16.20
2022-10-08T02:07:33.736Z,14.50
2022-10-08T02:10:09.638Z,16.98
2022-10-08T02:12:44.026Z,20.07
2022-10-08T02:15:45.142Z,18.45
2022-10-08T02:18:21.711Z,14.68
2022-10-08T02:21:04.926Z,19.25
2022-10-08T02:24:20.756Z,17.75
2022-10-08T02:26:57.463Z,19.73
2022-10-08T02:29:45.367Z,17.17
2022-10-08T02:32:51.685Z,13.65
2022-10-08T02:35:33.599Z,11.43
2022-10-08T02:38:34.240Z,12.32
2022-10-08T02:41:10.090Z,16.07
2022-10-08T02:43:48.055Z,15.15
2022-10-08T02:46:25.371Z,20.38
2022-10-08T02:49:29.078Z,12.32
2022-10-08T02:52:03.303Z,15.57
2022-10-08T02:54:40.359Z,13.77
2022-10-08T02:57:18.735Z,15.93
2022-10-08T02:59:51.978Z,11.98
2022-10-08T03:02:41.895Z,18.20
2022-10-08T03:05:18.864Z,14.73
2022-10-08T03:07:51.982Z,15.67
2022-10-08T03:10:26.023Z,14.20
2022-10-08T03:13:05.118Z,16.20
2022-10-08T03:15:37.899Z,13.05
2022-10-08T03:18:12.684Z,16.67
2022-10-08T03:20:51.512Z,12.27
2022-10-08T03:23:25.118Z,15.63
2022-10-08T03:25:57.018Z,17.98
2022-10-08T03:28:29.806Z,21.08
2022-10-08T03:31:06.480Z,17.65
2022-10-08T03:33:39.248Z,14.70
2022-10-08T03:36:11.604Z,11.70
2022-10-08T03:38:43.534Z,14.52
2022-10-08T03:41:17.748Z,14.18
2022-10-08T03:43:50.064Z,15.00
2022-10-08T03:46:21.961Z,14.53
2022-10-08T03:48:54.785Z,16.85
2022-10-08T03:51:26.678Z,18.92
2022-10-08T03:53:59.450Z,12.23
2022-10-08T03:56:31.345Z,12.68
2022-10-08T03:59:04.468Z,17.57
2022-10-08T04:01:36.597Z,14.00
2022-10-08T04:04:09.375Z,14.88
2022-10-08T04:06:41.692Z,13.40
2022-10-08T04:09:13.639Z,11.18
2022-10-08T04:11:46.621Z,11.60
2022-10-08T04:14:18.531Z,15.75
2022-10-08T04:16:51.288Z,14.52
2022-10-08T04:19:23.607Z,12.63
2022-10-08T04:21:56.369Z,12.38
2022-10-08T04:24:28.315Z,14.13
2022-10-08T04:27:00.994Z,14.52
2022-10-08T04:29:32.856Z,14.55
2022-10-08T04:32:05.635Z,13.98
2022-10-08T04:34:37.912Z,13.43
2022-10-08T04:37:11.011Z,17.70
2022-10-08T04:39:42.903Z,13.75
2022-10-08T04:42:15.912Z,13.15
2022-10-08T04:44:48.285Z,15.48
2022-10-08T04:47:20.226Z,15.32
2022-10-08T04:49:53.798Z,15.43
2022-10-08T04:52:25.711Z,17.55
2022-10-08T04:54:58.418Z,13.30
2022-10-08T04:57:31.449Z,14.35
2022-10-08T05:00:18.396Z,12.70
2022-10-08T05:02:51.815Z,13.03
2022-10-08T05:05:25.024Z,14.43
2022-10-08T05:07:57.247Z,15.52
2022-10-08T05:10:29.947Z,19.77
2022-10-08T05:13:03.064Z,12.85
2022-10-08T05:15:36.341Z,13.50
2022-10-08T05:18:08.279Z,13.20
2022-10-08T05:20:41.158Z,11.15
2022-10-08T05:23:13.463Z,12.85
2022-10-08T05:25:46.168Z,17.80
2022-10-08T05:28:18.089Z,14.73
2022-10-08T05:30:51.055Z,17.42
2022-10-08T05:33:23.417Z,14.60
2022-10-08T05:35:55.774Z,23.30
2022-10-08T05:38:34.655Z,21.27
2022-10-08T05:41:22.596Z,14.90
2022-10-08T05:43:57.412Z,15.90
2022-10-08T05:46:32.873Z,17.58
2022-10-08T05:49:08.775Z,14.18
2022-10-08T05:51:40.702Z,17.70
2022-10-08T05:54:13.556Z,19.33
2022-10-08T05:56:45.783Z,16.30
2022-10-08T05:59:24.393Z,18.40
2022-10-08T06:01:57.070Z,16.00
2022-10-08T06:04:29.068Z,13.48
2022-10-08T06:07:01.780Z,15.13
2022-10-08T06:09:33.651Z,17.15
2022-10-08T06:12:06.996Z,18.58
2022-10-08T06:14:40.196Z,16.23
2022-10-08T06:17:12.891Z,16.40
2022-10-08T06:19:44.754Z,18.07
2022-10-08T06:22:19.824Z,17.90
2022-10-08T06:24:51.681Z,18.08
2022-10-08T06:27:24.448Z,17.10
2022-10-08T06:29:56.717Z,12.85
2022-10-08T06:32:29.428Z,18.80
2022-10-08T06:35:01.785Z,22.33
2022-10-08T06:37:34.050Z,19.73
2022-10-08T06:40:06.356Z,20.35
2022-10-08T06:42:39.409Z,17.70
2022-10-08T06:45:11.314Z,16.97
2022-10-08T06:47:44.122Z,22.33
2022-10-08T06:50:16.130Z,14.40
2022-10-08T06:52:49.626Z,17.25
2022-10-08T06:55:24.152Z,17.48
2022-10-08T06:57:56.031Z,20.87
2022-10-08T07:00:29.011Z,16.52
2022-10-08T07:03:01.415Z,20.48
2022-10-08T07:05:34.128Z,16.17
2022-10-08T07:08:06.107Z,22.73
2022-10-08T07:10:39.105Z,15.30
2022-10-08T07:13:11.354Z,18.73
2022-10-08T07:15:44.481Z,19.13
2022-10-08T07:18:16.797Z,20.83
2022-10-08T07:20:56.182Z,24.23
2022-10-08T07:23:29.184Z,19.57
2022-10-08T07:26:14.293Z,23.73
2022-10-08T07:28:53.244Z,19.52
2022-10-08T07:31:31.272Z,19.92
2022-10-08T07:34:07.970Z,21.35
2022-10-08T07:36:40.872Z,20.83
2022-10-08T07:39:17.210Z,17.70
2022-10-08T07:41:50.072Z,17.30
2022-10-08T07:44:23.213Z,22.15
2022-10-08T07:46:56.530Z,23.88
2022-10-08T07:49:28.530Z,18.23
2022-10-08T07:52:01.302Z,16.15
2022-10-08T07:54:33.192Z,16.55
2022-10-08T07:57:06.200Z,20.45
2022-10-08T07:59:38.295Z,20.05
2022-10-08T08:02:11.558Z,17.17
2022-10-08T08:04:43.507Z,17.80
2022-10-08T08:07:16.200Z,18.77
2022-10-08T08:09:48.564Z,21.55
2022-10-08T08:12:23.914Z,20.02
2022-10-08T08:14:56.241Z,17.57
2022-10-08T08:17:28.646Z,16.80
2022-10-08T08:20:01.867Z,21.55
2022-10-08T08:22:33.776Z,15.55
2022-10-08T08:25:06.948Z,18.70
2022-10-08T08:27:38.903Z,20.23
2022-10-08T08:30:13.488Z,21.38
2022-10-08T08:32:45.777Z,18.05
2022-10-08T08:35:18.994Z,30.10
2022-10-08T08:37:51.426Z,18.58
2022-10-08T08:40:24.209Z,17.90
2022-10-08T08:42:57.776Z,20.50
2022-10-08T08:45:49.016Z,26.58
2022-10-08T08:48:29.326Z,21.45
2022-10-08T08:51:04.144Z,19.35
2022-10-08T08:53:36.888Z,22.27
2022-10-08T08:56:13.121Z,20.58
2022-10-08T08:59:29.103Z,20.92
2022-10-08T09:02:09.816Z,19.25
2022-10-08T09:04:51.233Z,19.58
2022-10-08T09:07:28.578Z,18.60
2022-10-08T09:10:01.646Z,17.42
2022-10-08T09:12:39.972Z,24.50
2022-10-08T09:15:32.776Z,17.38
2022-10-08T09:18:05.993Z,22.40
2022-10-08T09:20:40.539Z,16.90
2022-10-08T09:23:23.269Z,18.58
2022-10-08T09:26:13.993Z,21.80
2022-10-08T09:28:49.703Z,17.63
2022-10-08T09:31:27.218Z,18.75
2022-10-08T09:34:13.499Z,18.70
2022-10-08T09:37:21.455Z,17.05
2022-10-08T09:40:23.759Z,14.10
2022-10-08T09:43:17.512Z,16.23
2022-10-08T09:48:43.579Z,12.50
2022-10-08T09:51:17.389Z,9.30
2022-10-08T09:53:55.286Z,9.40
2022-10-08T09:56:31.057Z,10.02
2022-10-08T09:59:05.583Z,12.43
2022-10-08T10:01:46.284Z,9.67
2022-10-08T10:04:40.639Z,13.70
2022-10-08T10:07:12.582Z,12.82
2022-10-08T10:09:57.699Z,13.48
2022-10-08T10:12:35.604Z,10.40
2022-10-08T10:15:39.408Z,14.03
2022-10-08T10:18:27.590Z,11.85
2022-10-08T10:21:06.491Z,9.75
2022-10-08T10:23:53.033Z,8.52
2022-10-08T10:26:31.578Z,11.70
2022-10-08T10:29:22.813Z,11.10
2022-10-08T10:32:05.107Z,7.07
2022-10-08T10:34:40.302Z,9.00
2022-10-08T10:37:27.354Z,11.80
2022-10-08T10:40:40.447Z,10.00
2022-10-08T10:43:42.910Z,12.07
2022-10-08T10:46:37.193Z,8.13
2022-10-08T10:49:34.976Z,9.52
2022-10-08T10:52:50.994Z,7.28
2022-10-08T10:56:03.572Z,10.20
2022-10-08T10:58:54.386Z,11.00
2022-10-08T11:01:46.677Z,21.70
2022-10-08T11:04:47.496Z,9.43
2022-10-08T11:07:41.234Z,8.73
2022-10-08T11:10:20.926Z,8.45
2022-10-08T11:13:11.573Z,8.00
2022-10-08T11:15:51.941Z,7.80
2022-10-08T11:18:46.206Z,9.10
2022-10-08T11:21:46.056Z,7.65
2022-10-08T11:24:42.223Z,8.90
2022-10-08T11:28:06.113Z,11.77
2022-10-08T11:31:09.729Z,9.30
2022-10-08T11:33:43.130Z,9.65
2022-10-08T11:36:32.683Z,8.50
2022-10-08T11:39:22.220Z,9.68
2022-10-08T11:42:25.819Z,12.27
2022-10-08T11:45:44.627Z,7.57
2022-10-08T11:48:35.752Z,9.90
2022-10-08T11:51:20.631Z,8.27
2022-10-08T11:54:18.381Z,9.02
2022-10-08T11:57:09.610Z,9.13
2022-10-08T12:00:22.882Z,9.75
2022-10-08T12:02:56.339Z,10.23
2022-10-08T12:05:34.783Z,9.30
2022-10-08T12:08:07.063Z,8.95
2022-10-08T12:10:40.487Z,8.87
2022-10-08T12:13:17.455Z,9.48
2022-10-08T12:15:53.020Z,9.55
2022-10-08T12:18:26.508Z,9.88
2022-10-08T12:21:17.215Z,9.90
2022-10-08T12:23:49.597Z,7.53
2022-10-08T12:26:22.165Z,12.50
2022-10-08T12:28:54.502Z,10.70
2022-10-08T12:31:40.267Z,11.63
2022-10-08T12:34:18.897Z,10.00
2022-10-08T12:37:16.683Z,10.40
2022-10-08T12:39:50.280Z,9.77
2022-10-08T12:42:37.122Z,10.30
2022-10-08T12:45:26.214Z,8.18
2022-10-08T12:48:31.914Z,13.43
2022-10-08T12:51:04.858Z,11.53
2022-10-08T12:53:37.022Z,7.65
2022-10-08T12:56:18.855Z,11.80
2022-10-08T12:58:51.390Z,9.77
2022-10-08T13:01:25.481Z,7.10
2022-10-08T13:04:21.794Z,7.00
2022-10-08T13:06:55.672Z,9.13
2022-10-08T13:09:35.498Z,7.90
2022-10-08T13:12:10.584Z,11.43
2022-10-08T13:14:43.290Z,12.52
2022-10-08T13:17:34.032Z,11.17
2022-10-08T13:20:18.517Z,12.45
2022-10-08T13:22:51.126Z,12.13
2022-10-08T13:25:39.844Z,8.52
2022-10-08T13:28:13.032Z,7.25
2022-10-08T13:30:47.186Z,9.03
2022-10-08T13:33:22.584Z,13.38
2022-10-08T13:35:58.798Z,9.52
2022-10-08T13:38:34.020Z,9.68
2022-10-08T13:41:07.673Z,11.15
2022-10-08T13:43:40.020Z,10.33
2022-10-08T13:46:13.124Z,7.97
2022-10-08T13:48:45.624Z,9.10
2022-10-08T13:51:18.697Z,7.68
2022-10-08T13:53:56.238Z,10.57
2022-10-08T13:56:30.027Z,11.00
2022-10-08T13:59:02.373Z,7.30
2022-10-08T14:01:35.409Z,11.15
2022-10-08T14:04:07.461Z,12.30
2022-10-08T14:06:41.942Z,8.77
2022-10-08T14:09:19.602Z,9.43
2022-10-08T14:11:56.641Z,10.98
2022-10-08T14:14:29.629Z,8.65
2022-10-08T14:17:01.979Z,10.57
2022-10-08T14:19:34.926Z,10.32
2022-10-08T14:22:06.831Z,7.97
2022-10-08T14:24:40.260Z,11.65
2022-10-08T14:27:12.260Z,8.77
2022-10-08T14:29:45.312Z,7.88
2022-10-08T14:32:17.243Z,8.73
2022-10-08T14:34:49.928Z,7.93
2022-10-08T14:37:22.097Z,6.65
2022-10-08T14:39:54.728Z,12.13
2022-10-08T14:42:27.056Z,11.75
2022-10-08T14:45:00.271Z,8.80
2022-10-08T14:47:32.524Z,10.43
2022-10-08T14:50:05.951Z,8.02
2022-10-08T14:52:41.858Z,9.65
2022-10-08T14:55:17.035Z,12.30
2022-10-08T14:57:49.013Z,14.13
2022-10-08T15:00:21.974Z,10.50
2022-10-08T15:02:54.333Z,10.55
2022-10-08T15:05:27.473Z,6.63
2022-10-08T15:07:59.375Z,8.18
2022-10-08T15:10:32.337Z,11.32
2022-10-08T15:13:04.693Z,9.63
2022-10-08T15:15:45.233Z,7.97
2022-10-08T15:18:17.188Z,10.65
2022-10-08T15:20:58.096Z,9.20
2022-10-08T15:23:30.459Z,11.23
2022-10-08T15:26:10.786Z,7.23
2022-10-08T15:28:45.942Z,6.95
2022-10-08T15:31:20.258Z,13.05
2022-10-08T15:33:56.419Z,8.38
2022-10-08T15:36:36.099Z,12.18
2022-10-08T15:39:15.870Z,9.33
2022-10-08T15:41:51.308Z,24.38
2022-10-08T15:44:26.048Z,9.00
2022-10-08T15:47:07.056Z,6.93
2022-10-08T15:49:42.453Z,9.18
2022-10-08T15:52:19.350Z,10.37
2022-10-08T15:54:51.983Z,9.98
2022-10-08T15:57:24.249Z,11.43
2022-10-08T15:59:58.611Z,9.48
2022-10-08T16:02:30.923Z,12.35
2022-10-08T16:05:04.105Z,12.67
2022-10-08T16:07:36.413Z,10.68
2022-10-08T16:10:09.455Z,13.52
2022-10-08T16:12:41.715Z,8.70
2022-10-08T16:15:14.737Z,12.02
2022-10-08T16:17:47.244Z,10.17
2022-10-08T16:20:20.222Z,10.25
2022-10-08T16:22:52.532Z,7.70
2022-10-08T16:25:25.126Z,8.05
2022-10-08T16:27:57.034Z,10.15
2022-10-08T16:30:29.975Z,9.10
2022-10-08T16:33:02.457Z,10.32
2022-10-08T16:35:36.416Z,11.43
2022-10-08T16:38:08.749Z,9.18
2022-10-08T16:40:41.304Z,10.38
2022-10-08T16:43:14.002Z,6.90
2022-10-08T16:45:46.975Z,8.98
2022-10-08T16:48:19.351Z,9.05
2022-10-08T16:50:52.284Z,12.93
2022-10-08T16:53:24.168Z,9.68
2022-10-08T16:55:57.163Z,7.17
2022-10-08T16:58:29.073Z,11.93
2022-10-08T17:01:06.656Z,9.18
2022-10-08T17:03:38.988Z,6.60
2022-10-08T17:06:11.920Z,8.10
2022-10-08T17:08:44.376Z,6.60
2022-10-08T17:11:18.058Z,10.30
2022-10-08T17:13:54.420Z,10.25
2022-10-08T17:16:29.094Z,12.63
2022-10-08T17:19:02.506Z,11.10
2022-10-08T17:21:34.993Z,10.80
2022-10-08T17:24:08.705Z,7.40
2022-10-08T17:26:41.980Z,9.73
2022-10-08T17:29:15.657Z,8.75
2022-10-08T17:31:47.648Z,12.45
2022-10-08T17:34:20.663Z,8.50
2022-10-08T17:36:52.551Z,12.00
2022-10-08T17:39:26.192Z,9.02
2022-10-08T17:41:58.055Z,10.35
2022-10-08T17:44:30.618Z,6.85
2022-10-08T17:47:02.501Z,16.67
2022-10-08T17:49:37.140Z,8.52
2022-10-08T17:52:09.068Z,11.30
2022-10-08T17:54:42.171Z,9.25
2022-10-08T17:57:14.460Z,9.52
2022-10-08T17:59:46.789Z,11.10
2022-10-08T18:02:20.746Z,10.35
2022-10-08T18:04:52.624Z,13.27
2022-10-08T18:07:25.339Z,11.35
2022-10-08T18:09:58.014Z,13.40
2022-10-08T18:12:31.119Z,8.20
2022-10-08T18:15:05.362Z,10.07
2022-10-08T18:17:38.286Z,8.90
2022-10-08T18:20:10.750Z,11.32
2022-10-08T18:22:43.125Z,13.80
2022-10-08T18:25:15.464Z,13.27
2022-10-08T18:27:48.751Z,14.65
2022-10-08T18:30:21.707Z,13.35
2022-10-08T18:32:53.572Z,13.05
2022-10-08T18:35:26.378Z,14.77
2022-10-08T18:37:58.818Z,12.80
2022-10-08T18:43:22.895Z,11.50
2022-10-08T18:45:56.560Z,11.32
2022-10-08T18:48:35.004Z,11.38
2022-10-08T18:51:22.820Z,12.43
2022-10-08T18:53:56.707Z,12.88
2022-10-08T18:56:34.736Z,13.75
2022-10-08T18:59:13.267Z,12.30
2022-10-08T19:01:47.934Z,14.98
2022-10-08T19:04:21.789Z,13.87
2022-10-08T19:06:54.543Z,12.55
2022-10-08T19:09:26.475Z,14.45
2022-10-08T19:12:01.456Z,13.20
2022-10-08T19:14:33.439Z,11.07
2022-10-08T19:17:06.211Z,8.57
2022-10-08T19:19:38.463Z,10.95
2022-10-08T19:25:04.530Z,10.10
2022-10-08T19:27:37.653Z,10.65
2022-10-08T19:30:10.491Z,12.27
2022-10-08T19:32:43.971Z,9.00
2022-10-08T19:35:16.267Z,9.10
2022-10-08T19:37:49.418Z,15.55
2022-10-08T19:40:22.148Z,10.88
2022-10-08T19:42:54.845Z,15.17
2022-10-08T19:45:27.156Z,12.98
2022-10-08T19:47:59.699Z,12.30
2022-10-08T19:50:32.272Z,9.80
2022-10-08T19:53:05.036Z,10.30
2022-10-08T19:55:38.518Z,11.23
2022-10-08T19:58:10.846Z,10.68
2022-10-08T20:00:43.102Z,9.98
2022-10-08T20:03:15.898Z,11.65
2022-10-08T20:05:48.280Z,13.48
2022-10-08T20:08:21.666Z,11.73
2022-10-08T20:10:54.342Z,8.98
2022-10-08T20:13:26.273Z,10.20
2022-10-08T20:16:17.520Z,9.93
2022-10-08T20:18:56.665Z,11.32
2022-10-08T20:21:33.356Z,10.57
2022-10-08T20:24:07.397Z,9.27
2022-10-08T20:26:41.565Z,11.27
2022-10-08T20:29:18.840Z,9.60
2022-10-08T20:31:54.856Z,9.68
2022-10-08T20:37:21.736Z,12.82
2022-10-08T20:39:53.999Z,10.30
2022-10-08T20:42:28.746Z,16.65
2022-10-08T20:45:00.639Z,9.63
2022-10-08T20:47:33.135Z,10.27
2022-10-08T20:50:05.704Z,9.40
2022-10-08T20:52:38.364Z,10.05
2022-10-08T20:55:10.697Z,9.75
2022-10-08T20:57:43.313Z,13.07
2022-10-08T21:00:15.467Z,13.70
2022-10-08T21:02:48.629Z,8.68
2022-10-08T21:05:21.163Z,11.90
2022-10-08T21:07:54.135Z,11.23
2022-10-08T21:10:26.087Z,9.65
2022-10-08T21:12:58.559Z,13.80
2022-10-08T21:15:30.716Z,8.93
2022-10-08T21:18:03.750Z,9.82
2022-10-08T21:20:36.878Z,10.30
2022-10-08T21:23:09.441Z,11.25
2022-10-08T21:25:41.336Z,10.03
2022-10-08T21:28:14.289Z,13.32
2022-10-08T21:30:46.218Z,9.25
2022-10-08T21:33:18.759Z,8.40
2022-10-08T21:35:50.682Z,11.85
2022-10-08T21:38:24.018Z,7.63
2022-10-08T21:41:12.331Z,12.85
2022-10-08T21:43:47.297Z,10.80
2022-10-08T21:46:22.543Z,8.00
2022-10-08T21:48:58.405Z,11.55
2022-10-08T21:51:31.751Z,11.13
2022-10-08T21:54:07.038Z,9.43
2022-10-08T21:56:40.608Z,7.93
2022-10-08T21:59:15.922Z,10.15
2022-10-08T22:01:50.346Z,9.32
2022-10-08T22:04:25.410Z,9.43
2022-10-08T22:06:58.313Z,10.32
2022-10-08T22:09:34.950Z,9.20
2022-10-08T22:12:06.905Z,10.35
2022-10-08T22:14:39.906Z,9.80
2022-10-08T22:17:12.051Z,7.77
2022-10-08T22:19:44.577Z,13.63
2022-10-08T22:22:16.923Z,8.93
2022-10-08T22:24:49.486Z,10.32
2022-10-08T22:27:21.808Z,9.68
2022-10-08T22:29:54.935Z,8.30
2022-10-08T22:32:26.806Z,9.02
2022-10-08T22:34:59.480Z,8.95
2022-10-08T22:37:31.796Z,10.48
2022-10-08T22:40:04.382Z,7.97
2022-10-08T22:42:36.281Z,8.77
2022-10-08T22:45:09.555Z,8.30
2022-10-08T22:47:41.827Z,8.18
2022-10-08T22:50:14.612Z,9.35
2022-10-08T22:52:49.145Z,10.23
2022-10-08T22:55:22.065Z,10.27
2022-10-08T22:57:54.407Z,7.78
2022-10-08T23:00:27.309Z,7.28
2022-10-08T23:02:59.190Z,8.20
2022-10-08T23:05:31.762Z,10.75
2022-10-08T23:08:04.072Z,5.57
2022-10-08T23:10:36.639Z,9.00
2022-10-08T23:13:08.554Z,6.05
2022-10-08T23:15:41.074Z,10.40
2022-10-08T23:18:13.413Z,9.18
2022-10-08T23:20:45.922Z,5.80
2022-10-08T23:23:17.854Z,8.05
2022-10-08T23:25:59.078Z,8.05
2022-10-08T23:28:32.835Z,10.00
2022-10-08T23:31:12.931Z,8.32
2022-10-08T23:33:47.610Z,6.07
2022-10-08T23:36:30.560Z,6.82
2022-10-08T23:39:03.779Z,7.95
2022-10-08T23:41:37.538Z,8.27
2022-10-08T23:44:11.579Z,7.88
2022-10-08T23:46:44.988Z,7.13
2022-10-08T23:49:17.470Z,5.13
2022-10-08T23:51:50.011Z,5.80
2022-10-08T23:54:22.162Z,9.00
2022-10-08T23:56:54.720Z,5.88
2022-10-08T23:59:26.652Z,7.40
